createdAt,value
2019-03-21T00:01:26.325Z,39.95
2019-03-21T00:03:56.034Z,40.25
2019-03-21T00:06:22.192Z,39.39
2019-03-21T00:08:48.852Z,39.58
2019-03-21T00:11:41.393Z,39.12
2019-03-21T00:14:13.924Z,39.28
2019-03-21T00:16:40.182Z,38.86
2019-03-21T00:19:06.479Z,38.54
2019-03-21T00:21:32.636Z,38.38
2019-03-21T00:23:58.801Z,37.95
2019-03-21T00:26:25.928Z,38.59
2019-03-21T00:28:52.091Z,38.70
2019-03-21T00:31:18.356Z,38.67
2019-03-21T00:33:45.065Z,38.62
2019-03-21T00:36:11.236Z,38.13
2019-03-21T00:38:37.399Z,38.09
2019-03-21T00:41:03.592Z,38.45
2019-03-21T00:43:29.757Z,38.19
2019-03-21T00:45:55.921Z,37.87
2019-03-21T00:48:22.103Z,37.74
2019-03-21T00:50:48.262Z,37.88
2019-03-21T00:53:14.436Z,38.54
2019-03-21T00:55:49.972Z,38.11
2019-03-21T00:58:16.134Z,38.34
2019-03-21T01:00:45.599Z,37.82
2019-03-21T01:03:12.695Z,38.15
2019-03-21T01:05:38.962Z,37.99
2019-03-21T01:08:05.131Z,37.19
2019-03-21T01:10:31.340Z,37.80
2019-03-21T01:12:57.490Z,36.63
2019-03-21T01:15:23.753Z,36.43
2019-03-21T01:17:49.951Z,36.26
2019-03-21T01:20:16.124Z,37.04
2019-03-21T01:22:42.988Z,38.84
2019-03-21T01:25:21.897Z,39.40
2019-03-21T01:27:48.211Z,38.82
2019-03-21T01:30:16.267Z,39.51
2019-03-21T01:32:42.472Z,39.02
2019-03-21T01:35:08.631Z,38.35
2019-03-21T01:37:34.892Z,38.18
2019-03-21T01:40:01.189Z,37.98
2019-03-21T01:42:27.360Z,37.34
2019-03-21T01:44:53.521Z,37.44
2019-03-21T01:47:19.712Z,37.34
2019-03-21T01:49:45.981Z,36.85
2019-03-21T01:52:12.241Z,37.19
2019-03-21T01:54:38.437Z,38.47
2019-03-21T01:57:04.596Z,38.72
2019-03-21T01:59:30.855Z,39.35
2019-03-21T02:01:57.055Z,38.54
2019-03-21T02:04:23.261Z,38.18
2019-03-21T02:06:49.423Z,39.05
2019-03-21T02:09:15.612Z,38.88
2019-03-21T02:11:41.777Z,38.59
2019-03-21T02:14:08.040Z,38.67
2019-03-21T02:16:34.236Z,38.77
2019-03-21T02:19:00.405Z,40.20
2019-03-21T02:21:26.578Z,41.88
2019-03-21T02:23:52.982Z,41.37
2019-03-21T02:26:19.144Z,42.09
2019-03-21T02:28:45.352Z,43.07
2019-03-21T02:31:11.551Z,44.27
2019-03-21T02:33:40.621Z,41.67
2019-03-21T02:36:14.027Z,42.80
2019-03-21T02:38:40.217Z,41.21
2019-03-21T02:41:14.472Z,39.55
2019-03-21T02:43:40.637Z,39.92
2019-03-21T02:46:06.842Z,39.38
2019-03-21T02:48:33.000Z,38.85
2019-03-21T02:50:59.274Z,38.94
2019-03-21T02:53:25.459Z,38.91
2019-03-21T02:55:51.646Z,39.18
2019-03-21T02:58:17.917Z,39.55
2019-03-21T03:00:44.909Z,39.23
2019-03-21T03:03:11.467Z,39.26
2019-03-21T03:05:38.038Z,39.05
2019-03-21T03:08:05.447Z,38.74
2019-03-21T03:10:49.706Z,38.70
2019-03-21T03:13:15.907Z,39.25
2019-03-21T03:15:42.492Z,39.40
2019-03-21T03:18:10.862Z,39.19
2019-03-21T03:20:37.063Z,39.01
2019-03-21T03:23:03.214Z,39.26
2019-03-21T03:25:29.486Z,39.76
2019-03-21T03:27:59.285Z,39.62
2019-03-21T03:30:25.542Z,39.12
2019-03-21T03:32:51.709Z,39.15
2019-03-21T03:35:17.913Z,39.92
2019-03-21T03:37:44.474Z,38.89
2019-03-21T03:40:23.532Z,38.29
2019-03-21T03:42:49.699Z,38.04
2019-03-21T03:45:37.376Z,38.06
2019-03-21T03:47:58.771Z,38.43
2019-03-21T03:50:24.933Z,39.38
2019-03-21T03:52:51.134Z,40.03
2019-03-21T03:55:18.402Z,39.95
2019-03-21T03:57:45.864Z,40.10
2019-03-21T04:00:17.928Z,39.69
2019-03-21T04:02:45.494Z,39.88
2019-03-21T04:05:12.758Z,39.10
2019-03-21T04:07:40.270Z,39.27
2019-03-21T04:10:12.797Z,38.32
2019-03-21T04:12:39.157Z,38.25
2019-03-21T04:15:09.057Z,37.55
2019-03-21T04:17:35.318Z,37.18
2019-03-21T04:20:01.513Z,36.87
2019-03-21T04:22:27.675Z,36.92
2019-03-21T04:24:53.842Z,36.55
2019-03-21T04:27:20.024Z,36.33
2019-03-21T04:29:46.216Z,36.99
2019-03-21T04:32:12.426Z,36.78
2019-03-21T04:34:38.589Z,36.14
2019-03-21T04:37:04.787Z,36.48
2019-03-21T04:39:30.954Z,36.40
2019-03-21T04:41:57.122Z,36.28
2019-03-21T04:44:23.315Z,36.28
2019-03-21T04:46:49.486Z,36.50
2019-03-21T04:49:15.652Z,36.72
2019-03-21T04:51:41.850Z,38.41
2019-03-21T04:54:08.019Z,39.27
2019-03-21T04:56:34.203Z,38.99
2019-03-21T04:59:00.402Z,39.10
2019-03-21T05:01:26.561Z,40.67
2019-03-21T05:03:52.733Z,39.90
2019-03-21T05:06:19.316Z,39.36
2019-03-21T05:08:45.482Z,38.93
2019-03-21T05:11:11.646Z,38.81
2019-03-21T05:13:37.839Z,37.40
2019-03-21T05:16:14.391Z,36.18
2019-03-21T05:18:44.949Z,35.18
2019-03-21T05:21:14.713Z,34.98
2019-03-21T05:23:40.876Z,34.78
2019-03-21T05:26:07.173Z,35.36
2019-03-21T05:28:33.343Z,36.46
2019-03-21T05:31:31.804Z,36.28
2019-03-21T05:33:58.105Z,36.19
2019-03-21T05:36:24.434Z,34.51
2019-03-21T05:38:50.657Z,34.04
2019-03-21T05:41:16.829Z,34.03
2019-03-21T05:44:01.952Z,34.56
2019-03-21T05:46:29.016Z,34.64
2019-03-21T05:48:55.286Z,36.06
2019-03-21T05:51:21.475Z,35.47
2019-03-21T05:53:47.644Z,35.28
2019-03-21T05:56:13.809Z,34.66
2019-03-21T05:58:40.013Z,34.15
2019-03-21T06:01:30.993Z,34.05
2019-03-21T06:03:57.186Z,34.90
2019-03-21T06:06:32.844Z,35.89
2019-03-21T06:15:50.639Z,33.73
2019-03-21T06:18:44.160Z,34.50
2019-03-21T06:21:20.272Z,34.56
2019-03-21T06:23:53.039Z,33.83
2019-03-21T06:26:22.948Z,33.80
2019-03-21T06:28:49.123Z,33.20
2019-03-21T06:31:15.296Z,34.06
2019-03-21T06:33:41.617Z,34.34
2019-03-21T06:36:08.663Z,34.63
2019-03-21T06:38:34.831Z,34.65
2019-03-21T06:41:01.032Z,34.23
2019-03-21T06:43:27.196Z,33.54
2019-03-21T06:45:53.468Z,33.80
2019-03-21T06:48:19.778Z,34.23
2019-03-21T06:50:46.044Z,34.28
2019-03-21T06:53:12.203Z,33.73
2019-03-21T06:55:38.510Z,31.87
2019-03-21T06:58:04.672Z,30.40
2019-03-21T07:00:30.831Z,30.60
2019-03-21T07:02:57.022Z,30.37
2019-03-21T07:05:23.184Z,31.60
2019-03-21T07:07:49.350Z,31.64
2019-03-21T07:10:15.539Z,32.36
2019-03-21T07:12:41.711Z,32.30
2019-03-21T07:15:09.696Z,30.92
2019-03-21T07:17:35.912Z,31.96
2019-03-21T07:20:03.980Z,33.52
2019-03-21T07:22:30.135Z,30.57
2019-03-21T07:24:56.448Z,29.93
2019-03-21T07:27:22.681Z,31.37
2019-03-21T07:29:48.889Z,30.25
2019-03-21T07:32:15.075Z,30.56
2019-03-21T07:34:41.237Z,30.97
2019-03-21T07:37:07.434Z,29.68
2019-03-21T07:39:33.735Z,28.94
2019-03-21T07:42:01.223Z,27.65
2019-03-21T07:44:27.643Z,27.83
2019-03-21T07:46:53.835Z,26.73
2019-03-21T07:49:19.993Z,26.84
2019-03-21T07:51:46.157Z,27.44
2019-03-21T07:54:12.451Z,26.53
2019-03-21T07:56:38.604Z,27.87
2019-03-21T07:59:04.774Z,27.20
2019-03-21T08:01:30.976Z,27.66
2019-03-21T08:03:57.134Z,30.04
2019-03-21T08:06:23.392Z,28.03
2019-03-21T08:08:50.102Z,30.48
2019-03-21T08:11:16.256Z,29.22
2019-03-21T08:13:42.525Z,26.94
2019-03-21T08:16:08.821Z,26.33
2019-03-21T08:18:35.098Z,25.74
2019-03-21T08:21:01.268Z,25.53
2019-03-21T08:23:27.463Z,27.63
2019-03-21T08:25:53.610Z,26.55
2019-03-21T08:28:19.765Z,24.66
2019-03-21T08:31:07.906Z,24.42
2019-03-21T08:33:34.163Z,23.26
2019-03-21T08:36:00.320Z,22.94
2019-03-21T08:38:26.554Z,26.25
2019-03-21T08:40:52.832Z,26.13
2019-03-21T08:43:19.091Z,24.42
2019-03-21T08:45:45.395Z,25.45
2019-03-21T08:48:11.547Z,25.70
2019-03-21T08:50:37.810Z,24.96
2019-03-21T08:53:04.101Z,25.56
2019-03-21T08:55:30.666Z,25.99
2019-03-21T08:57:56.868Z,23.99
2019-03-21T09:00:33.730Z,23.97
2019-03-21T09:02:51.243Z,23.82
2019-03-21T09:05:17.407Z,27.72
2019-03-21T09:07:43.620Z,27.13
2019-03-21T09:10:10.179Z,25.79
2019-03-21T09:12:36.334Z,25.22
2019-03-21T09:15:05.225Z,24.26
2019-03-21T09:17:31.490Z,26.65
2019-03-21T09:19:57.649Z,28.96
2019-03-21T09:22:23.872Z,27.82
2019-03-21T09:24:50.134Z,26.01
2019-03-21T09:27:16.293Z,26.10
2019-03-21T09:29:53.170Z,25.57
2019-03-21T09:32:11.671Z,25.74
2019-03-21T09:34:37.879Z,25.77
2019-03-21T09:37:04.264Z,26.62
2019-03-21T09:39:30.530Z,25.45
2019-03-21T09:41:56.689Z,23.70
2019-03-21T09:44:22.586Z,24.38
2019-03-21T09:46:51.074Z,24.00
2019-03-21T09:49:16.910Z,22.45
2019-03-21T09:51:43.213Z,22.48
2019-03-21T09:54:10.082Z,23.05
2019-03-21T09:56:36.339Z,23.30
2019-03-21T09:59:02.609Z,24.35
2019-03-21T10:01:28.802Z,23.50
2019-03-21T10:03:54.962Z,23.70
2019-03-21T10:06:21.245Z,23.71
2019-03-21T10:08:47.407Z,22.21
2019-03-21T10:11:13.566Z,22.44
2019-03-21T10:13:39.759Z,22.71
2019-03-21T10:16:05.917Z,22.10
2019-03-21T10:18:32.085Z,21.92
2019-03-21T10:20:58.293Z,21.76
2019-03-21T10:23:24.436Z,21.56
2019-03-21T10:25:50.696Z,22.66
2019-03-21T10:28:16.875Z,21.31
2019-03-21T10:30:43.034Z,21.13
2019-03-21T10:33:11.309Z,21.31
2019-03-21T10:35:37.512Z,22.36
2019-03-21T10:38:04.508Z,22.60
2019-03-21T10:40:30.716Z,21.52
2019-03-21T10:42:56.914Z,22.53
2019-03-21T10:45:23.075Z,19.58
2019-03-21T10:47:49.234Z,17.56
2019-03-21T10:50:19.037Z,16.84
2019-03-21T10:52:45.312Z,16.42
2019-03-21T10:55:11.474Z,18.33
2019-03-21T10:57:37.789Z,21.41
2019-03-21T11:00:07.160Z,22.54
2019-03-21T11:02:33.418Z,22.52
2019-03-21T11:04:59.609Z,23.06
2019-03-21T11:07:25.878Z,22.46
2019-03-21T11:09:52.407Z,23.12
2019-03-21T11:12:18.605Z,23.11
2019-03-21T11:14:44.766Z,23.11
2019-03-21T11:17:10.971Z,22.52
2019-03-21T11:19:37.189Z,22.72
2019-03-21T11:22:06.617Z,21.96
2019-03-21T11:24:31.515Z,21.78
2019-03-21T11:26:57.711Z,23.77
2019-03-21T11:29:23.977Z,23.84
2019-03-21T11:31:50.138Z,21.57
2019-03-21T11:34:16.329Z,22.38
2019-03-21T11:36:42.498Z,21.44
2019-03-21T11:39:08.650Z,23.31
2019-03-21T11:41:34.916Z,22.89
2019-03-21T11:44:01.071Z,23.95
2019-03-21T11:46:27.228Z,26.98
2019-03-21T11:48:53.430Z,24.57
2019-03-21T11:51:19.581Z,24.32
2019-03-21T11:53:45.742Z,23.99
2019-03-21T11:56:13.168Z,24.10
2019-03-21T11:58:39.708Z,24.16
2019-03-21T12:01:05.887Z,23.16
2019-03-21T12:03:32.185Z,22.13
2019-03-21T12:05:58.350Z,23.32
2019-03-21T12:08:24.611Z,24.05
2019-03-21T12:10:50.927Z,23.49
2019-03-21T12:13:24.126Z,22.06
2019-03-21T12:15:50.270Z,22.33
2019-03-21T12:18:16.463Z,21.42
2019-03-21T12:20:42.621Z,20.63
2019-03-21T12:23:08.889Z,21.39
2019-03-21T12:25:35.075Z,20.95
2019-03-21T12:28:01.750Z,19.79
2019-03-21T12:30:33.750Z,18.37
2019-03-21T12:32:59.953Z,21.80
2019-03-21T12:35:26.110Z,23.08
2019-03-21T12:37:52.384Z,23.71
2019-03-21T12:40:18.588Z,23.82
2019-03-21T12:42:44.828Z,24.19
2019-03-21T12:45:12.791Z,23.62
2019-03-21T12:47:38.978Z,22.80
2019-03-21T12:50:06.838Z,23.67
2019-03-21T12:52:41.401Z,24.77
2019-03-21T12:55:01.222Z,24.41
2019-03-21T12:57:27.473Z,23.18
2019-03-21T12:59:53.734Z,23.62
2019-03-21T13:02:31.881Z,23.93
2019-03-21T13:04:48.203Z,23.97
2019-03-21T13:07:14.831Z,23.54
2019-03-21T13:09:41.553Z,23.32
2019-03-21T13:12:07.816Z,23.57
2019-03-21T13:14:33.971Z,22.80
2019-03-21T13:17:00.169Z,23.79
2019-03-21T13:19:26.331Z,24.32
2019-03-21T13:21:52.589Z,24.49
2019-03-21T13:24:19.640Z,25.85
2019-03-21T13:26:46.038Z,26.28
2019-03-21T13:29:12.191Z,24.99
2019-03-21T13:31:38.771Z,24.12
2019-03-21T13:34:05.148Z,25.10
2019-03-21T13:36:31.312Z,24.76
2019-03-21T13:38:57.674Z,25.23
2019-03-21T13:41:23.950Z,24.92
2019-03-21T13:43:51.032Z,24.74
2019-03-21T13:46:17.225Z,23.75
2019-03-21T13:48:43.398Z,23.98
2019-03-21T13:51:09.660Z,24.13
2019-03-21T13:53:35.861Z,22.65
2019-03-21T13:56:02.122Z,23.01
2019-03-21T13:58:28.280Z,23.98
2019-03-21T14:00:54.487Z,26.58
2019-03-21T14:03:25.224Z,27.05
2019-03-21T14:05:48.831Z,27.32
2019-03-21T14:08:15.024Z,26.13
2019-03-21T14:10:41.539Z,25.85
2019-03-21T14:13:07.827Z,26.88
2019-03-21T14:15:34.018Z,26.66
2019-03-21T14:18:00.185Z,26.89
2019-03-21T14:20:26.448Z,27.59
2019-03-21T14:22:52.648Z,27.71
2019-03-21T14:25:18.904Z,26.66
2019-03-21T14:27:45.168Z,26.19
2019-03-21T14:30:14.057Z,26.43
2019-03-21T14:32:40.230Z,27.55
2019-03-21T14:35:06.782Z,27.35
2019-03-21T14:37:32.989Z,26.54
2019-03-21T14:39:59.145Z,27.10
2019-03-21T14:42:25.330Z,26.47
2019-03-21T14:44:51.579Z,26.23
2019-03-21T14:47:17.743Z,26.42
2019-03-21T14:49:43.904Z,25.99
2019-03-21T14:52:10.093Z,26.83
2019-03-21T14:54:36.351Z,26.35
2019-03-21T14:57:02.506Z,25.23
2019-03-21T14:59:28.699Z,25.59
2019-03-21T15:01:54.856Z,26.15
2019-03-21T15:04:21.009Z,26.90
2019-03-21T15:06:47.190Z,26.41
2019-03-21T15:09:13.452Z,25.87
2019-03-21T15:11:39.724Z,26.50
2019-03-21T15:14:06.004Z,27.09
2019-03-21T15:16:32.179Z,27.80
2019-03-21T15:18:58.424Z,27.47
2019-03-21T15:21:24.675Z,28.12
2019-03-21T15:23:59.380Z,28.25
2019-03-21T15:26:18.903Z,27.83
2019-03-21T15:28:45.089Z,26.84
2019-03-21T15:31:11.255Z,27.13
2019-03-21T15:33:37.514Z,28.84
2019-03-21T15:36:03.804Z,29.06
2019-03-21T15:38:29.964Z,28.21
2019-03-21T15:40:56.129Z,28.69
2019-03-21T15:43:22.421Z,28.34
2019-03-21T15:45:49.636Z,28.53
2019-03-21T15:48:15.777Z,28.14
2019-03-21T15:50:41.971Z,28.04
2019-03-21T15:53:08.131Z,27.34
2019-03-21T15:55:34.297Z,27.73
2019-03-21T15:58:00.507Z,28.63
2019-03-21T16:00:35.281Z,28.42
2019-03-21T16:03:02.373Z,29.50
2019-03-21T16:05:28.632Z,30.41
2019-03-21T16:07:54.787Z,29.99
2019-03-21T16:10:21.102Z,29.70
2019-03-21T16:12:47.268Z,28.81
2019-03-21T16:15:13.434Z,29.77
2019-03-21T16:17:39.749Z,29.48
2019-03-21T16:20:07.200Z,30.26
2019-03-21T16:22:33.367Z,30.46
2019-03-21T16:24:59.575Z,29.41
2019-03-21T16:27:25.729Z,30.68
2019-03-21T16:29:51.899Z,30.13
2019-03-21T16:32:18.084Z,31.48
2019-03-21T16:34:44.345Z,30.37
2019-03-21T16:37:11.998Z,29.46
2019-03-21T16:39:38.502Z,30.33
2019-03-21T16:42:04.665Z,30.75
2019-03-21T16:44:30.824Z,30.57
2019-03-21T16:46:57.069Z,31.36
2019-03-21T16:49:23.227Z,30.28
2019-03-21T16:51:49.446Z,29.90
2019-03-21T16:54:17.453Z,30.31
2019-03-21T16:56:43.730Z,30.30
2019-03-21T16:59:09.896Z,31.02
2019-03-21T17:01:36.189Z,31.31
2019-03-21T17:04:02.362Z,31.30
2019-03-21T17:06:28.524Z,30.99
2019-03-21T17:08:54.704Z,30.24
2019-03-21T17:11:20.871Z,29.68
2019-03-21T17:13:47.130Z,29.72
2019-03-21T17:16:13.354Z,29.78
2019-03-21T17:18:39.604Z,29.39
2019-03-21T17:21:05.845Z,30.00
2019-03-21T17:23:32.047Z,29.37
2019-03-21T17:25:58.201Z,29.08
2019-03-21T17:28:24.374Z,29.97
2019-03-21T17:30:50.686Z,30.30
2019-03-21T17:33:16.876Z,30.14
2019-03-21T17:35:43.053Z,30.25
2019-03-21T17:38:09.244Z,30.29
2019-03-21T17:40:35.417Z,30.16
2019-03-21T17:43:01.691Z,30.45
2019-03-21T17:45:27.988Z,30.33
2019-03-21T17:47:54.215Z,30.52
2019-03-21T17:50:20.371Z,31.65
2019-03-21T17:52:46.578Z,31.40
2019-03-21T17:55:12.833Z,31.68
2019-03-21T17:57:39.015Z,30.58
2019-03-21T18:00:14.820Z,30.50
2019-03-21T18:02:41.106Z,30.50
2019-03-21T18:05:07.290Z,30.43
2019-03-21T18:07:33.499Z,31.05
2019-03-21T18:09:59.667Z,30.80
2019-03-21T18:12:25.863Z,30.59
2019-03-21T18:14:52.055Z,30.56
2019-03-21T18:17:18.364Z,30.97
2019-03-21T18:19:44.623Z,31.05
2019-03-21T18:22:10.938Z,30.52
2019-03-21T18:24:37.109Z,29.99
2019-03-21T18:27:03.267Z,29.83
2019-03-21T18:29:29.490Z,30.19
2019-03-21T18:31:55.741Z,29.81
2019-03-21T18:34:22.001Z,30.08
2019-03-21T18:36:48.305Z,29.59
2019-03-21T18:39:14.556Z,30.20
2019-03-21T18:41:40.707Z,31.16
2019-03-21T18:44:07.005Z,32.09
2019-03-21T18:46:33.169Z,31.85
2019-03-21T18:48:59.599Z,32.55
2019-03-21T18:51:25.785Z,31.74
2019-03-21T18:53:51.948Z,31.80
2019-03-21T18:56:18.107Z,32.13
2019-03-21T18:58:44.321Z,31.14
2019-03-21T19:01:10.588Z,31.14
2019-03-21T19:03:36.754Z,32.04
2019-03-21T19:06:03.340Z,32.59
2019-03-21T19:08:29.497Z,33.47
2019-03-21T19:10:55.768Z,32.75
2019-03-21T19:13:22.073Z,31.91
2019-03-21T19:15:48.247Z,32.45
2019-03-21T19:18:14.416Z,32.45
2019-03-21T19:20:40.629Z,32.47
2019-03-21T19:23:07.774Z,32.05
2019-03-21T19:25:33.943Z,31.65
2019-03-21T19:28:00.169Z,31.49
2019-03-21T19:30:26.325Z,31.45
2019-03-21T19:32:52.499Z,31.81
2019-03-21T19:35:19.394Z,32.75
2019-03-21T19:37:45.659Z,32.58
2019-03-21T19:40:17.742Z,32.42
2019-03-21T19:42:43.935Z,32.37
2019-03-21T19:45:14.555Z,31.83
2019-03-21T19:47:40.717Z,32.43
2019-03-21T19:50:09.367Z,32.04
2019-03-21T19:52:35.524Z,31.79
2019-03-21T19:55:01.702Z,32.31
2019-03-21T19:57:28.020Z,32.25
2019-03-21T19:59:54.188Z,32.83
2019-03-21T20:02:20.365Z,32.31
2019-03-21T20:04:48.345Z,32.47
2019-03-21T20:07:14.524Z,31.90
2019-03-21T20:09:40.791Z,32.26
2019-03-21T20:12:07.307Z,32.21
2019-03-21T20:14:33.468Z,31.64
2019-03-21T20:16:59.738Z,31.21
2019-03-21T20:19:25.949Z,31.36
2019-03-21T20:21:52.219Z,31.04
2019-03-21T20:24:18.391Z,31.76
2019-03-21T20:26:44.590Z,32.46
2019-03-21T20:29:10.746Z,32.54
2019-03-21T20:31:36.908Z,31.97
2019-03-21T20:34:03.304Z,32.40
2019-03-21T20:36:29.481Z,32.87
2019-03-21T20:38:55.738Z,32.31
2019-03-21T20:41:21.946Z,31.87
2019-03-21T20:43:48.116Z,31.99
2019-03-21T20:46:14.380Z,31.85
2019-03-21T20:48:40.282Z,32.06
2019-03-21T20:51:06.461Z,32.42
2019-03-21T20:53:32.617Z,32.41
2019-03-21T20:55:58.819Z,32.26
2019-03-21T20:58:24.991Z,32.93
2019-03-21T21:00:51.155Z,33.09
2019-03-21T21:03:17.362Z,31.83
2019-03-21T21:05:43.532Z,31.79
2019-03-21T21:08:09.803Z,31.72
2019-03-21T21:10:36.012Z,32.10
2019-03-21T21:13:02.288Z,31.42
2019-03-21T21:15:28.444Z,32.39
2019-03-21T21:17:54.745Z,31.83
2019-03-21T21:20:21.018Z,32.45
2019-03-21T21:22:47.185Z,32.28
2019-03-21T21:25:13.390Z,32.09
2019-03-21T21:27:48.638Z,31.41
2019-03-21T21:30:11.220Z,31.49
2019-03-21T21:32:37.416Z,31.28
2019-03-21T21:35:06.292Z,31.63
2019-03-21T21:37:32.446Z,31.23
2019-03-21T21:39:58.711Z,30.81
2019-03-21T21:42:24.915Z,30.61
2019-03-21T21:44:51.072Z,30.59
2019-03-21T21:47:17.284Z,30.67
2019-03-21T21:49:43.456Z,30.53
2019-03-21T21:52:09.714Z,30.94
2019-03-21T21:54:35.918Z,31.14
2019-03-21T21:57:02.171Z,31.53
2019-03-21T21:59:28.382Z,30.71
2019-03-21T22:01:54.645Z,30.70
2019-03-21T22:04:20.822Z,30.84
2019-03-21T22:06:46.981Z,31.30
2019-03-21T22:09:13.201Z,31.29
2019-03-21T22:11:39.363Z,31.91
2019-03-21T22:14:05.622Z,32.51
2019-03-21T22:16:31.824Z,32.50
2019-03-21T22:18:57.993Z,32.28
2019-03-21T22:21:24.169Z,32.32
2019-03-21T22:23:50.374Z,32.37
2019-03-21T22:26:16.643Z,32.32
2019-03-21T22:28:42.810Z,32.56
2019-03-21T22:31:09.018Z,33.01
2019-03-21T22:33:35.181Z,33.01
2019-03-21T22:36:01.357Z,32.87
2019-03-21T22:38:27.557Z,32.88
2019-03-21T22:40:53.723Z,32.88
2019-03-21T22:43:19.991Z,32.50
2019-03-21T22:45:46.192Z,32.40
2019-03-21T22:48:12.364Z,31.80
2019-03-21T22:50:38.645Z,32.50
2019-03-21T22:53:05.829Z,32.31
2019-03-21T22:55:32.095Z,32.51
2019-03-21T22:57:58.273Z,33.59
2019-03-21T23:03:01.896Z,33.48
2019-03-21T23:05:28.166Z,33.30
2019-03-21T23:07:54.401Z,32.97
2019-03-21T23:10:20.572Z,32.62
2019-03-21T23:12:46.742Z,33.10
2019-03-21T23:15:13.056Z,32.90
2019-03-21T23:17:39.323Z,33.08
2019-03-21T23:20:08.185Z,32.74
2019-03-21T23:22:34.529Z,33.22
2019-03-21T23:25:00.684Z,33.62
2019-03-21T23:27:26.955Z,33.49
2019-03-21T23:29:53.210Z,32.59
2019-03-21T23:32:19.524Z,32.87
2019-03-21T23:34:45.697Z,32.93
2019-03-21T23:37:11.992Z,32.30
2019-03-21T23:39:38.158Z,32.73
2019-03-21T23:42:04.323Z,32.40
2019-03-21T23:44:30.522Z,31.82
2019-03-21T23:46:56.686Z,31.81
2019-03-21T23:49:22.862Z,32.16
2019-03-21T23:51:49.057Z,32.06
2019-03-21T23:54:15.270Z,32.32
2019-03-21T23:56:41.543Z,32.11
2019-03-21T23:59:07.744Z,31.92
